createdAt,value
2019-03-11T00:00:42.117Z,34.11
2019-03-11T00:01:42.068Z,33.91
2019-03-11T00:02:42.071Z,34.11
2019-03-11T00:03:41.973Z,33.91
2019-03-11T00:04:41.929Z,33.82
2019-03-11T00:05:41.876Z,34.01
2019-03-11T00:06:41.830Z,34.01
2019-03-11T00:07:41.781Z,33.72
2019-03-11T00:08:41.734Z,34.01
2019-03-11T00:09:41.687Z,33.91
2019-03-11T00:10:41.638Z,34.01
2019-03-11T00:11:41.594Z,33.91
2019-03-11T00:12:41.542Z,33.91
2019-03-11T00:13:41.495Z,33.91
2019-03-11T00:14:41.448Z,33.91
2019-03-11T00:15:41.398Z,33.91
2019-03-11T00:16:41.351Z,34.01
2019-03-11T00:17:41.303Z,34.11
2019-03-11T00:18:41.254Z,33.91
2019-03-11T00:19:41.212Z,33.82
2019-03-11T00:20:41.159Z,33.82
2019-03-11T00:21:41.111Z,33.82
2019-03-11T00:22:41.065Z,33.82
2019-03-11T00:23:41.016Z,33.91
2019-03-11T00:24:41.018Z,34.01
2019-03-11T00:25:40.920Z,33.82
2019-03-11T00:26:40.875Z,33.82
2019-03-11T00:27:40.826Z,33.91
2019-03-11T00:28:40.777Z,33.91
2019-03-11T00:29:40.731Z,33.91
2019-03-11T00:30:40.681Z,33.72
2019-03-11T00:31:40.632Z,33.82
2019-03-11T00:32:40.591Z,33.82
2019-03-11T00:33:40.543Z,33.91
2019-03-11T00:34:40.489Z,33.91
2019-03-11T00:35:40.441Z,33.91
2019-03-11T00:36:40.393Z,33.91
2019-03-11T00:37:40.346Z,33.91
2019-03-11T00:38:40.299Z,33.91
2019-03-11T00:39:40.250Z,33.91
2019-03-11T00:40:40.202Z,33.91
2019-03-11T00:41:40.154Z,33.91
2019-03-11T00:42:40.113Z,34.01
2019-03-11T00:43:40.109Z,33.62
2019-03-11T00:44:40.110Z,33.72
2019-03-11T00:45:40.113Z,33.82
2019-03-11T00:46:39.915Z,33.72
2019-03-11T00:47:39.867Z,33.82
2019-03-11T00:48:39.820Z,33.91
2019-03-11T00:49:39.771Z,33.72
2019-03-11T00:50:40.040Z,33.72
2019-03-11T00:51:39.675Z,33.91
2019-03-11T00:52:39.705Z,33.91
2019-03-11T00:53:39.580Z,33.72
2019-03-11T00:54:39.532Z,33.82
2019-03-11T00:55:39.485Z,33.91
2019-03-11T00:56:39.436Z,33.91
2019-03-11T00:57:39.393Z,33.72
2019-03-11T00:58:39.348Z,33.82
2019-03-11T00:59:39.292Z,33.82
2019-03-11T01:00:39.244Z,33.62
2019-03-11T01:01:39.197Z,33.82
2019-03-11T01:02:39.149Z,33.82
2019-03-11T01:03:39.100Z,33.62
2019-03-11T01:04:39.056Z,33.82
2019-03-11T01:05:39.005Z,33.82
2019-03-11T01:06:39.007Z,33.91
2019-03-11T01:07:38.909Z,33.72
2019-03-11T01:08:38.860Z,33.62
2019-03-11T01:09:38.814Z,33.62
2019-03-11T01:10:38.766Z,34.01
2019-03-11T01:11:38.718Z,33.82
2019-03-11T01:12:38.673Z,33.91
2019-03-11T01:13:38.622Z,33.72
2019-03-11T01:14:38.575Z,33.62
2019-03-11T01:15:38.532Z,33.91
2019-03-11T01:16:38.477Z,33.72
2019-03-11T01:17:38.430Z,33.91
2019-03-11T01:18:38.384Z,33.91
2019-03-11T01:19:38.334Z,33.72
2019-03-11T01:20:38.286Z,33.91
2019-03-11T01:21:38.239Z,33.72
2019-03-11T01:22:38.230Z,33.62
2019-03-11T01:23:38.154Z,33.72
2019-03-11T01:24:38.095Z,33.72
2019-03-11T01:25:38.049Z,33.72
2019-03-11T01:26:38.000Z,33.82
2019-03-11T01:27:37.950Z,33.91
2019-03-11T01:28:37.903Z,33.91
2019-03-11T01:29:37.856Z,33.82
2019-03-11T01:30:37.808Z,33.91
2019-03-11T01:31:37.761Z,33.82
2019-03-11T01:32:37.718Z,33.82
2019-03-11T01:33:37.664Z,33.82
2019-03-11T01:34:37.615Z,33.72
2019-03-11T01:35:37.568Z,33.82
2019-03-11T01:36:37.531Z,33.72
2019-03-11T01:37:37.471Z,33.72
2019-03-11T01:38:37.425Z,33.72
2019-03-11T01:39:37.376Z,33.72
2019-03-11T01:40:37.335Z,33.72
2019-03-11T01:41:37.281Z,33.82
2019-03-11T01:42:37.233Z,33.82
2019-03-11T01:43:37.185Z,33.91
2019-03-11T01:44:37.137Z,33.72
2019-03-11T01:45:37.090Z,33.72
2019-03-11T01:46:37.042Z,33.82
2019-03-11T01:47:36.994Z,33.82
2019-03-11T01:48:36.996Z,33.82
2019-03-11T01:49:36.899Z,33.72
2019-03-11T01:50:36.850Z,33.82
2019-03-11T01:51:36.802Z,33.82
2019-03-11T01:52:36.754Z,33.82
2019-03-11T01:53:36.706Z,33.82
2019-03-11T01:54:36.661Z,33.82
2019-03-11T01:55:36.612Z,33.82
2019-03-11T01:56:36.594Z,33.72
2019-03-11T01:57:36.515Z,33.72
2019-03-11T01:58:36.469Z,33.91
2019-03-11T01:59:36.418Z,33.72
2019-03-11T02:00:36.371Z,33.72
2019-03-11T02:01:36.322Z,33.72
2019-03-11T02:02:36.279Z,33.82
2019-03-11T02:03:36.228Z,33.72
2019-03-11T02:04:36.181Z,33.72
2019-03-11T02:05:36.132Z,33.62
2019-03-11T02:06:36.084Z,33.72
2019-03-11T02:07:36.036Z,33.62
2019-03-11T02:08:36.304Z,33.82
2019-03-11T02:09:35.990Z,33.62
2019-03-11T02:10:35.892Z,33.91
2019-03-11T02:11:35.843Z,33.72
2019-03-11T02:12:35.796Z,33.72
2019-03-11T02:13:35.748Z,33.72
2019-03-11T02:14:35.703Z,33.72
2019-03-11T02:15:35.652Z,33.82
2019-03-11T02:16:35.604Z,33.82
2019-03-11T02:17:35.559Z,33.91
2019-03-11T02:18:35.509Z,33.91
2019-03-11T02:19:35.461Z,33.82
2019-03-11T02:20:35.413Z,33.91
2019-03-11T02:21:35.365Z,33.72
2019-03-11T02:22:35.316Z,33.72
2019-03-11T02:23:35.269Z,33.72
2019-03-11T02:24:35.228Z,33.72
2019-03-11T02:25:35.174Z,33.91
2019-03-11T02:26:35.126Z,33.91
2019-03-11T02:27:35.077Z,33.82
2019-03-11T02:28:35.030Z,33.62
2019-03-11T02:29:34.985Z,33.91
2019-03-11T02:30:34.935Z,33.91
2019-03-11T02:31:34.894Z,33.82
2019-03-11T02:32:34.839Z,33.62
2019-03-11T02:33:34.791Z,33.91
2019-03-11T02:34:34.742Z,33.62
2019-03-11T02:35:34.694Z,34.01
2019-03-11T02:36:34.647Z,33.72
2019-03-11T02:37:34.599Z,33.82
2019-03-11T02:38:34.554Z,33.91
2019-03-11T02:39:34.503Z,33.82
2019-03-11T02:40:34.455Z,33.72
2019-03-11T02:41:34.408Z,33.91
2019-03-11T02:42:34.361Z,33.82
2019-03-11T02:43:34.314Z,33.72
2019-03-11T02:44:34.265Z,33.91
2019-03-11T02:45:34.219Z,33.72
2019-03-11T02:46:34.169Z,33.82
2019-03-11T02:47:34.120Z,33.72
2019-03-11T02:48:34.073Z,33.91
2019-03-11T02:49:34.024Z,33.72
2019-03-11T02:50:33.979Z,33.72
2019-03-11T02:51:33.977Z,33.82
2019-03-11T02:52:33.881Z,34.01
2019-03-11T02:53:33.837Z,33.82
2019-03-11T02:54:33.785Z,34.01
2019-03-11T02:55:33.737Z,33.91
2019-03-11T02:56:33.692Z,33.72
2019-03-11T02:57:33.641Z,33.91
2019-03-11T02:58:33.593Z,33.91
2019-03-11T02:59:33.545Z,33.62
2019-03-11T03:00:33.499Z,33.91
2019-03-11T03:01:33.453Z,33.72
2019-03-11T03:02:33.402Z,34.11
2019-03-11T03:03:33.353Z,34.01
2019-03-11T03:04:33.306Z,33.72
2019-03-11T03:05:33.258Z,33.53
2019-03-11T03:06:33.217Z,33.72
2019-03-11T03:07:33.161Z,34.01
2019-03-11T03:08:33.113Z,33.72
2019-03-11T03:09:33.066Z,33.72
2019-03-11T03:10:33.022Z,33.72
2019-03-11T03:11:32.971Z,33.82
2019-03-11T03:12:32.978Z,33.62
2019-03-11T03:13:32.875Z,33.62
2019-03-11T03:14:32.834Z,33.62
2019-03-11T03:15:32.779Z,33.72
2019-03-11T03:16:32.740Z,33.82
2019-03-11T03:17:32.684Z,33.82
2019-03-11T03:18:32.636Z,33.62
2019-03-11T03:19:32.587Z,33.91
2019-03-11T03:20:32.547Z,33.91
2019-03-11T03:21:32.492Z,33.91
2019-03-11T03:22:32.442Z,33.91
2019-03-11T03:23:32.401Z,33.91
2019-03-11T03:24:32.347Z,33.72
2019-03-11T03:25:34.732Z,33.91
2019-03-11T03:26:32.259Z,33.82
2019-03-11T03:27:32.203Z,33.72
2019-03-11T03:28:32.247Z,33.82
2019-03-11T03:29:32.109Z,33.91
2019-03-11T03:30:32.064Z,33.82
2019-03-11T03:31:32.013Z,33.82
2019-03-11T03:32:31.978Z,33.72
2019-03-11T03:33:31.920Z,33.91
2019-03-11T03:34:31.875Z,34.01
2019-03-11T03:35:31.822Z,33.91
2019-03-11T03:36:31.774Z,33.72
2019-03-11T03:37:31.731Z,33.82
2019-03-11T03:38:31.772Z,33.82
2019-03-11T03:39:31.630Z,33.82
2019-03-11T03:40:31.585Z,33.82
2019-03-11T03:41:31.534Z,33.91
2019-03-11T03:42:31.694Z,33.62
2019-03-11T03:43:31.437Z,33.91
2019-03-11T03:44:31.390Z,33.91
2019-03-11T03:45:31.342Z,33.91
2019-03-11T03:46:31.295Z,33.72
2019-03-11T03:47:31.245Z,33.62
2019-03-11T03:48:31.278Z,33.91
2019-03-11T03:49:31.155Z,33.62
2019-03-11T03:50:31.117Z,33.82
2019-03-11T03:51:31.054Z,33.91
2019-03-11T03:52:31.007Z,33.62
2019-03-11T03:53:31.008Z,33.72
2019-03-11T03:54:30.914Z,33.62
2019-03-11T03:55:30.862Z,33.62
2019-03-11T03:56:30.825Z,34.01
2019-03-11T03:57:30.767Z,33.72
2019-03-11T03:58:30.726Z,33.72
2019-03-11T03:59:30.671Z,33.82
2019-03-11T04:00:30.636Z,33.82
2019-03-11T04:01:30.577Z,33.72
2019-03-11T04:02:30.528Z,34.01
2019-03-11T04:03:30.480Z,33.62
2019-03-11T04:04:30.441Z,33.72
2019-03-11T04:05:30.382Z,33.82
2019-03-11T04:06:30.414Z,33.72
2019-03-11T04:07:30.288Z,33.82
2019-03-11T04:08:30.243Z,34.01
2019-03-11T04:09:30.196Z,33.72
2019-03-11T04:10:32.556Z,33.62
2019-03-11T04:11:30.097Z,33.72
2019-03-11T04:12:30.048Z,33.62
2019-03-11T04:13:30.001Z,33.53
2019-03-11T04:14:30.004Z,33.62
2019-03-11T04:15:30.003Z,33.72
2019-03-11T04:16:29.862Z,33.62
2019-03-11T04:17:29.809Z,33.91
2019-03-11T04:18:29.763Z,33.62
2019-03-11T04:19:29.936Z,34.11
2019-03-11T04:20:29.665Z,33.62
2019-03-11T04:21:29.618Z,34.11
2019-03-11T04:22:29.575Z,33.62
2019-03-11T04:23:29.521Z,33.82
2019-03-11T04:24:29.480Z,33.53
2019-03-11T04:25:29.426Z,33.82
2019-03-11T04:26:29.392Z,33.72
2019-03-11T04:27:29.330Z,33.72
2019-03-11T04:28:29.285Z,33.62
2019-03-11T04:29:29.234Z,33.62
2019-03-11T04:30:29.188Z,34.01
2019-03-11T04:31:29.137Z,33.72
2019-03-11T04:32:29.089Z,33.62
2019-03-11T04:33:29.093Z,33.91
2019-03-11T04:34:29.044Z,34.11
2019-03-11T04:35:29.097Z,34.01
2019-03-11T04:36:28.913Z,34.01
2019-03-11T04:37:28.851Z,33.62
2019-03-11T04:38:28.803Z,34.01
2019-03-11T04:39:28.754Z,33.82
2019-03-11T04:40:28.706Z,34.11
2019-03-11T04:41:28.659Z,33.72
2019-03-11T04:42:28.612Z,33.91
2019-03-11T04:43:28.562Z,33.53
2019-03-11T04:44:28.516Z,33.82
2019-03-11T04:45:28.468Z,33.82
2019-03-11T04:46:28.421Z,33.82
2019-03-11T04:47:28.372Z,34.01
2019-03-11T04:48:28.324Z,33.62
2019-03-11T04:49:28.279Z,34.11
2019-03-11T04:50:28.228Z,33.91
2019-03-11T04:51:28.182Z,34.01
2019-03-11T04:52:28.133Z,33.82
2019-03-11T04:53:28.085Z,34.20
2019-03-11T04:54:28.037Z,33.82
2019-03-11T04:55:27.988Z,33.72
2019-03-11T04:56:27.946Z,33.82
2019-03-11T04:57:27.892Z,33.82
2019-03-11T04:58:27.845Z,33.91
2019-03-11T04:59:27.796Z,33.72
2019-03-11T05:00:27.748Z,34.01
2019-03-11T05:01:27.704Z,33.91
2019-03-11T05:02:27.654Z,33.91
2019-03-11T05:03:27.605Z,33.91
2019-03-11T05:04:27.557Z,33.72
2019-03-11T05:05:27.509Z,33.72
2019-03-11T05:06:27.463Z,33.82
2019-03-11T05:07:27.413Z,33.82
2019-03-11T05:08:27.366Z,33.72
2019-03-11T05:09:27.318Z,33.82
2019-03-11T05:10:27.270Z,34.01
2019-03-11T05:11:27.223Z,33.82
2019-03-11T05:12:27.174Z,33.82
2019-03-11T05:13:27.126Z,33.82
2019-03-11T05:14:27.082Z,33.72
2019-03-11T05:15:27.031Z,33.72
2019-03-11T05:16:26.982Z,33.82
2019-03-11T05:17:26.987Z,33.82
2019-03-11T05:18:26.887Z,33.82
2019-03-11T05:19:26.841Z,34.11
2019-03-11T05:20:26.790Z,33.91
2019-03-11T05:21:26.741Z,33.82
2019-03-11T05:22:26.695Z,33.82
2019-03-11T05:23:26.659Z,33.91
2019-03-11T05:24:26.618Z,33.82
2019-03-11T05:25:26.554Z,33.82
2019-03-11T05:26:26.503Z,33.91
2019-03-11T05:27:26.455Z,33.91
2019-03-11T05:28:26.406Z,33.82
2019-03-11T05:29:26.358Z,33.72
2019-03-11T05:30:26.311Z,34.01
2019-03-11T05:31:26.264Z,34.01
2019-03-11T05:32:26.215Z,33.70
2019-03-11T05:33:26.168Z,34.01
2019-03-11T05:34:26.120Z,33.72
2019-03-11T05:35:26.071Z,33.82
2019-03-11T05:36:26.024Z,33.72
2019-03-11T05:37:25.976Z,34.11
2019-03-11T05:38:25.928Z,34.01
2019-03-11T05:39:25.883Z,33.72
2019-03-11T05:40:25.833Z,34.01
2019-03-11T05:41:25.784Z,33.62
2019-03-11T05:42:25.736Z,34.01
2019-03-11T05:43:25.688Z,33.82
2019-03-11T05:44:25.640Z,33.91
2019-03-11T05:45:25.594Z,33.91
2019-03-11T05:46:25.547Z,33.91
2019-03-11T05:47:25.496Z,33.82
2019-03-11T05:48:25.449Z,33.82
2019-03-11T05:49:25.401Z,33.82
2019-03-11T05:50:25.353Z,33.82
2019-03-11T05:51:31.320Z,33.82
2019-03-11T05:52:25.257Z,33.82
2019-03-11T05:53:25.209Z,33.53
2019-03-11T05:54:25.160Z,33.82
2019-03-11T05:55:25.113Z,33.62
2019-03-11T05:56:25.068Z,33.62
2019-03-11T05:57:25.068Z,33.53
2019-03-11T05:58:24.970Z,33.53
2019-03-11T05:59:24.971Z,33.53
2019-03-11T06:00:24.873Z,33.62
2019-03-11T06:01:24.829Z,33.62
2019-03-11T06:02:24.778Z,33.62
2019-03-11T06:03:24.729Z,33.34
2019-03-11T06:04:24.686Z,33.34
2019-03-11T06:05:24.638Z,33.53
2019-03-11T06:06:24.586Z,33.62
2019-03-11T06:07:24.536Z,33.53
2019-03-11T06:08:24.490Z,33.82
2019-03-11T06:09:24.442Z,33.53
2019-03-11T06:10:24.394Z,33.53
2019-03-11T06:11:24.350Z,33.44
2019-03-11T06:12:24.298Z,33.34
2019-03-11T06:13:35.328Z,33.34
2019-03-11T06:14:24.203Z,33.24
2019-03-11T06:15:24.154Z,33.34
2019-03-11T06:16:24.106Z,33.34
2019-03-11T06:17:24.058Z,33.34
2019-03-11T06:18:24.011Z,33.44
2019-03-11T06:19:23.964Z,33.53
2019-03-11T06:20:23.964Z,33.53
2019-03-11T06:21:23.867Z,33.34
2019-03-11T06:22:23.818Z,33.24
2019-03-11T06:23:23.770Z,33.24
2019-03-11T06:24:23.722Z,33.44
2019-03-11T06:25:23.708Z,33.24
2019-03-11T06:26:23.655Z,33.72
2019-03-11T06:27:23.578Z,33.62
2019-03-11T06:28:23.530Z,33.62
2019-03-11T06:29:30.601Z,33.62
2019-03-11T06:30:23.436Z,33.44
2019-03-11T06:31:23.387Z,33.44
2019-03-11T06:32:23.339Z,33.15
2019-03-11T06:33:23.290Z,33.15
2019-03-11T06:34:23.244Z,33.15
2019-03-11T06:35:23.195Z,33.05
2019-03-11T06:36:23.147Z,33.15
2019-03-11T06:37:23.099Z,33.05
2019-03-11T06:38:23.052Z,33.05
2019-03-11T06:39:23.002Z,33.05
2019-03-11T06:40:22.956Z,32.95
2019-03-11T06:41:22.908Z,32.95
2019-03-11T06:42:22.863Z,32.86
2019-03-11T06:43:22.857Z,32.86
2019-03-11T06:44:22.764Z,32.76
2019-03-11T06:45:22.718Z,32.86
2019-03-11T06:46:22.669Z,32.95
2019-03-11T06:47:22.621Z,33.05
2019-03-11T06:48:22.573Z,33.05
2019-03-11T06:49:22.524Z,32.95
2019-03-11T06:50:22.477Z,33.24
2019-03-11T06:51:22.428Z,33.34
2019-03-11T06:52:22.381Z,33.15
2019-03-11T06:53:22.333Z,32.86
2019-03-11T06:54:22.287Z,32.87
2019-03-11T06:55:22.237Z,32.68
2019-03-11T06:56:22.194Z,32.49
2019-03-11T06:57:22.158Z,32.49
2019-03-11T06:58:22.093Z,32.38
2019-03-11T06:59:22.046Z,32.59
2019-03-11T07:00:22.005Z,32.87
2019-03-11T07:01:22.267Z,32.68
2019-03-11T07:02:21.905Z,32.78
2019-03-11T07:03:21.854Z,32.78
2019-03-11T07:04:21.807Z,32.78
2019-03-11T07:05:21.761Z,32.49
2019-03-11T07:06:21.712Z,32.49
2019-03-11T07:07:21.663Z,32.39
2019-03-11T07:08:21.615Z,32.49
2019-03-11T07:09:21.695Z,32.59
2019-03-11T07:10:21.522Z,32.78
2019-03-11T07:11:21.473Z,32.59
2019-03-11T07:12:21.424Z,32.39
2019-03-11T07:13:21.377Z,32.39
2019-03-11T07:14:21.328Z,32.78
2019-03-11T07:15:21.280Z,32.68
2019-03-11T07:16:21.234Z,32.30
2019-03-11T07:17:21.185Z,32.59
2019-03-11T07:18:21.137Z,32.59
2019-03-11T07:19:21.089Z,32.49
2019-03-11T07:20:21.045Z,32.59
2019-03-11T07:21:20.993Z,32.49
2019-03-11T07:22:20.996Z,32.78
2019-03-11T07:23:20.898Z,33.16
2019-03-11T07:24:20.854Z,32.87
2019-03-11T07:25:20.803Z,33.16
2019-03-11T07:26:20.757Z,33.64
2019-03-11T07:27:20.707Z,33.26
2019-03-11T07:28:20.659Z,33.36
2019-03-11T07:29:20.611Z,33.54
2019-03-11T07:30:20.564Z,33.45
2019-03-11T07:31:20.518Z,33.28
2019-03-11T07:32:20.470Z,33.36
2019-03-11T07:33:20.421Z,33.45
2019-03-11T07:34:20.372Z,33.56
2019-03-11T07:35:20.325Z,33.47
2019-03-11T07:36:20.277Z,33.37
2019-03-11T07:37:20.355Z,33.56
2019-03-11T07:38:20.196Z,33.47
2019-03-11T07:39:20.135Z,33.37
2019-03-11T07:40:29.101Z,33.95
2019-03-11T07:41:20.043Z,33.75
2019-03-11T07:42:19.992Z,33.85
2019-03-11T07:43:19.944Z,33.85
2019-03-11T07:44:19.896Z,33.95
2019-03-11T07:45:19.849Z,34.14
2019-03-11T07:46:19.802Z,34.14
2019-03-11T07:47:19.752Z,34.23
2019-03-11T07:48:19.706Z,34.23
2019-03-11T07:49:19.658Z,34.43
2019-03-11T07:50:19.609Z,34.33
2019-03-11T07:51:19.561Z,34.05
2019-03-11T07:52:19.514Z,34.14
2019-03-11T07:53:19.469Z,34.22
2019-03-11T07:54:19.477Z,34.61
2019-03-11T07:55:19.370Z,34.41
2019-03-11T07:56:19.324Z,34.22
2019-03-11T07:57:19.278Z,34.61
2019-03-11T07:58:19.230Z,34.62
2019-03-11T07:59:19.181Z,34.61
2019-03-11T08:00:19.133Z,34.51
2019-03-11T08:01:19.087Z,34.70
2019-03-11T08:02:19.039Z,34.14
2019-03-11T08:03:18.992Z,34.23
2019-03-11T08:04:18.992Z,34.05
2019-03-11T08:05:18.895Z,34.22
2019-03-11T08:06:19.209Z,34.22
2019-03-11T08:07:18.799Z,34.22
2019-03-11T08:08:18.751Z,34.41
2019-03-11T08:09:18.705Z,34.31
2019-03-11T08:10:18.658Z,34.12
2019-03-11T08:11:18.608Z,34.22
2019-03-11T08:12:18.561Z,34.41
2019-03-11T08:13:18.515Z,34.31
2019-03-11T08:14:18.466Z,34.70
2019-03-11T08:15:18.425Z,34.61
2019-03-11T08:16:18.370Z,34.61
2019-03-11T08:17:18.323Z,34.61
2019-03-11T08:18:18.274Z,34.61
2019-03-11T08:19:18.226Z,34.70
2019-03-11T08:20:18.194Z,34.70
2019-03-11T08:21:18.132Z,34.80
2019-03-11T08:22:18.092Z,34.80
2019-03-11T08:23:18.042Z,34.70
2019-03-11T08:24:17.988Z,34.80
2019-03-11T08:25:17.990Z,34.99
2019-03-11T08:26:17.894Z,35.08
2019-03-11T08:27:17.845Z,35.08
2019-03-11T08:28:17.803Z,35.10
2019-03-11T08:29:17.751Z,35.00
2019-03-11T08:30:17.702Z,35.00
2019-03-11T08:31:17.654Z,35.00
2019-03-11T08:32:17.615Z,34.72
2019-03-11T08:33:17.564Z,34.81
2019-03-11T08:34:17.514Z,34.91
2019-03-11T08:35:17.463Z,34.53
2019-03-11T08:36:17.415Z,34.70
2019-03-11T08:37:17.368Z,34.41
2019-03-11T08:38:17.321Z,34.51
2019-03-11T08:39:17.272Z,34.51
2019-03-11T08:40:17.227Z,34.80
2019-03-11T08:41:17.178Z,34.70
2019-03-11T08:42:17.130Z,34.70
2019-03-11T08:43:17.082Z,34.70
2019-03-11T08:44:17.043Z,34.61
2019-03-11T08:45:16.988Z,34.51
2019-03-11T08:46:16.989Z,34.51
2019-03-11T08:47:16.891Z,34.61
2019-03-11T08:48:16.845Z,34.72
2019-03-11T08:49:16.797Z,34.61
2019-03-11T08:50:16.752Z,34.61
2019-03-11T08:51:16.700Z,34.41
2019-03-11T08:52:16.654Z,34.70
2019-03-11T08:53:16.606Z,34.51
2019-03-11T08:54:16.558Z,34.51
2019-03-11T08:55:16.511Z,34.61
2019-03-11T08:56:16.466Z,34.51
2019-03-11T08:57:16.417Z,34.61
2019-03-11T08:58:16.367Z,34.80
2019-03-11T08:59:16.697Z,34.31
2019-03-11T09:00:16.291Z,34.51
2019-03-11T09:01:16.225Z,34.12
2019-03-11T09:02:16.202Z,34.41
2019-03-11T09:03:16.129Z,34.51
2019-03-11T09:04:16.082Z,34.51
2019-03-11T09:05:16.038Z,34.61
2019-03-11T09:06:16.087Z,34.61
2019-03-11T09:07:15.939Z,34.70
2019-03-11T09:08:15.891Z,34.70
2019-03-11T09:09:15.843Z,34.70
2019-03-11T09:10:15.797Z,34.89
2019-03-11T09:11:15.747Z,34.70
2019-03-11T09:12:15.702Z,34.70
2019-03-11T09:13:15.651Z,34.70
2019-03-11T09:14:15.605Z,34.70
2019-03-11T09:15:15.559Z,34.80
2019-03-11T09:16:15.509Z,34.80
2019-03-11T09:17:15.473Z,34.89
2019-03-11T09:18:15.414Z,34.89
2019-03-11T09:19:15.366Z,34.51
2019-03-11T09:20:15.318Z,34.61
2019-03-11T09:21:15.271Z,34.61
2019-03-11T09:22:15.225Z,34.70
2019-03-11T09:23:15.174Z,34.80
2019-03-11T09:24:19.068Z,34.81
2019-03-11T09:25:15.082Z,34.72
2019-03-11T09:26:15.034Z,34.72
2019-03-11T09:27:14.985Z,34.91
2019-03-11T09:28:14.970Z,35.00
2019-03-11T09:29:14.890Z,35.10
2019-03-11T09:30:14.843Z,35.00
2019-03-11T09:31:14.793Z,34.81
2019-03-11T09:32:14.745Z,35.58
2019-03-11T09:33:14.702Z,35.49
2019-03-11T09:34:14.652Z,35.77
2019-03-11T09:35:14.605Z,35.77
2019-03-11T09:36:14.557Z,36.07
2019-03-11T09:37:14.508Z,35.87
2019-03-11T09:38:14.462Z,35.77
2019-03-11T09:39:14.467Z,36.07
2019-03-11T09:40:14.365Z,35.68
2019-03-11T09:41:14.318Z,35.77
2019-03-11T09:42:14.271Z,35.77
2019-03-11T09:43:14.223Z,35.49
2019-03-11T09:44:14.175Z,35.68
2019-03-11T09:45:14.129Z,35.39
2019-03-11T09:46:14.080Z,35.30
2019-03-11T09:47:14.042Z,34.92
2019-03-11T09:48:14.035Z,34.92
2019-03-11T09:49:13.940Z,35.02
2019-03-11T09:50:13.899Z,35.02
2019-03-11T09:51:13.842Z,34.92
2019-03-11T09:52:13.795Z,35.02
2019-03-11T09:53:13.747Z,34.83
2019-03-11T09:54:13.700Z,34.64
2019-03-11T09:55:13.652Z,34.74
2019-03-11T09:56:13.604Z,34.92
2019-03-11T09:57:13.556Z,34.83
2019-03-11T09:58:13.510Z,34.74
2019-03-11T09:59:13.469Z,34.74
2019-03-11T10:00:13.415Z,34.92
2019-03-11T10:01:13.366Z,34.74
2019-03-11T10:02:13.320Z,34.74
2019-03-11T10:03:13.272Z,34.64
2019-03-11T10:04:13.224Z,34.74
2019-03-11T10:05:13.177Z,35.12
2019-03-11T10:06:13.132Z,34.83
2019-03-11T10:07:13.082Z,35.12
2019-03-11T10:08:13.034Z,35.12
2019-03-11T10:09:12.996Z,35.12
2019-03-11T10:10:12.991Z,35.02
2019-03-11T10:11:12.892Z,35.02
2019-03-11T10:12:12.845Z,35.02
2019-03-11T10:13:12.802Z,35.02
2019-03-11T10:14:12.761Z,35.12
2019-03-11T10:15:12.741Z,35.02
2019-03-11T10:16:12.655Z,35.02
2019-03-11T10:17:12.611Z,35.12
2019-03-11T10:18:12.562Z,34.92
2019-03-11T10:19:12.513Z,35.12
2019-03-11T10:20:12.466Z,35.02
2019-03-11T10:21:12.417Z,34.83
2019-03-11T10:22:12.371Z,35.02
2019-03-11T10:23:12.326Z,34.92
2019-03-11T10:24:12.276Z,34.92
2019-03-11T10:25:12.229Z,35.12
2019-03-11T10:26:12.181Z,35.22
2019-03-11T10:27:12.136Z,35.41
2019-03-11T10:28:12.086Z,35.41
2019-03-11T10:29:12.038Z,35.50
2019-03-11T10:30:12.083Z,35.41
2019-03-11T10:31:11.994Z,35.50
2019-03-11T10:32:11.896Z,35.70
2019-03-11T10:33:11.848Z,35.50
2019-03-11T10:34:11.858Z,35.60
2019-03-11T10:35:30.277Z,35.50
2019-03-11T10:36:11.705Z,35.41
2019-03-11T10:37:11.659Z,35.70
2019-03-11T10:38:11.610Z,35.41
2019-03-11T10:39:11.571Z,35.50
2019-03-11T10:40:11.516Z,35.22
2019-03-11T10:41:11.469Z,35.22
2019-03-11T10:42:11.422Z,34.83
2019-03-11T10:43:11.385Z,34.92
2019-03-11T10:44:11.326Z,35.02
2019-03-11T10:45:11.278Z,35.02
2019-03-11T10:46:11.239Z,34.84
2019-03-11T10:47:11.184Z,34.84
2019-03-11T10:48:11.136Z,35.02
2019-03-11T10:49:11.089Z,34.84
2019-03-11T10:50:11.041Z,35.14
2019-03-11T10:51:10.996Z,34.92
2019-03-11T10:52:10.997Z,34.94
2019-03-11T10:53:10.900Z,35.04
2019-03-11T10:54:10.851Z,35.14
2019-03-11T10:55:10.803Z,35.04
2019-03-11T10:56:10.757Z,35.04
2019-03-11T10:57:10.710Z,35.04
2019-03-11T10:58:10.662Z,34.94
2019-03-11T10:59:10.631Z,34.94
2019-03-11T11:00:10.570Z,35.04
2019-03-11T11:01:10.523Z,34.94
2019-03-11T11:02:10.474Z,34.94
2019-03-11T11:03:10.424Z,34.75
2019-03-11T11:04:10.379Z,35.50
2019-03-11T11:05:10.332Z,35.50
2019-03-11T11:06:10.284Z,35.50
2019-03-11T11:07:10.235Z,35.70
2019-03-11T11:08:10.189Z,35.79
2019-03-11T11:09:10.146Z,35.79
2019-03-11T11:10:10.095Z,35.99
2019-03-11T11:11:10.046Z,36.08
2019-03-11T11:12:09.999Z,36.08
2019-03-11T11:13:09.956Z,36.47
2019-03-11T11:14:09.955Z,36.47
2019-03-11T11:15:09.858Z,36.37
2019-03-11T11:16:09.809Z,36.18
2019-03-11T11:17:09.764Z,36.27
2019-03-11T11:18:09.716Z,36.27
2019-03-11T11:19:09.666Z,36.37
2019-03-11T11:20:09.622Z,36.37
2019-03-11T11:21:09.574Z,36.47
2019-03-11T11:22:09.526Z,36.47
2019-03-11T11:23:09.528Z,36.47
2019-03-11T11:24:09.431Z,36.56
2019-03-11T11:25:09.384Z,36.37
2019-03-11T11:26:09.336Z,36.37
2019-03-11T11:27:09.290Z,36.47
2019-03-11T11:28:09.242Z,36.35
2019-03-11T11:29:09.193Z,36.37
2019-03-11T11:30:09.147Z,36.27
2019-03-11T11:31:09.099Z,36.18
2019-03-11T11:32:09.051Z,36.16
2019-03-11T11:33:09.005Z,36.07
2019-03-11T11:34:09.009Z,36.07
2019-03-11T11:35:08.961Z,36.16
2019-03-11T11:36:08.862Z,35.97
2019-03-11T11:37:08.815Z,36.45
2019-03-11T11:38:08.768Z,36.45
2019-03-11T11:39:08.719Z,36.45
2019-03-11T11:40:08.672Z,36.45
2019-03-11T11:41:08.625Z,36.35
2019-03-11T11:42:08.578Z,36.45
2019-03-11T11:43:08.529Z,36.45
2019-03-11T11:44:08.494Z,36.45
2019-03-11T11:45:08.448Z,36.35
2019-03-11T11:46:08.388Z,36.45
2019-03-11T11:47:08.340Z,36.54
2019-03-11T11:48:08.548Z,36.54
2019-03-11T11:49:08.245Z,36.54
2019-03-11T11:50:08.199Z,36.45
2019-03-11T11:51:08.150Z,36.45
2019-03-11T11:52:08.102Z,36.45
2019-03-11T11:53:08.056Z,36.35
2019-03-11T11:54:08.008Z,36.35
2019-03-11T11:55:07.970Z,36.45
2019-03-11T11:56:07.963Z,36.07
2019-03-11T11:57:07.867Z,36.35
2019-03-11T11:58:07.828Z,35.97
2019-03-11T11:59:07.778Z,36.16
2019-03-11T12:00:07.723Z,36.07
2019-03-11T12:01:07.675Z,36.07
2019-03-11T12:02:07.628Z,35.97
2019-03-11T12:03:07.581Z,36.16
2019-03-11T12:04:07.533Z,36.07
2019-03-11T12:05:07.487Z,36.16
2019-03-11T12:06:07.438Z,36.16
2019-03-11T12:07:07.391Z,36.07
2019-03-11T12:08:07.344Z,36.07
2019-03-11T12:09:07.295Z,35.87
2019-03-11T12:10:07.249Z,36.35
2019-03-11T12:11:07.200Z,36.07
2019-03-11T12:12:07.205Z,36.07
2019-03-11T12:13:07.114Z,36.45
2019-03-11T12:14:07.059Z,36.54
2019-03-11T12:15:07.020Z,36.35
2019-03-11T12:16:07.013Z,36.45
2019-03-11T12:17:06.965Z,36.25
2019-03-11T12:18:06.869Z,36.25
2019-03-11T12:19:06.819Z,36.35
2019-03-11T12:20:06.772Z,36.35
2019-03-11T12:21:06.725Z,36.25
2019-03-11T12:22:06.678Z,36.35
2019-03-11T12:23:06.630Z,36.35
2019-03-11T12:24:06.583Z,36.35
2019-03-11T12:25:06.535Z,36.45
2019-03-11T12:26:06.489Z,36.25
2019-03-11T12:27:06.452Z,36.45
2019-03-11T12:28:06.392Z,36.35
2019-03-11T12:29:06.345Z,36.54
2019-03-11T12:30:06.298Z,36.54
2019-03-11T12:31:06.249Z,36.35
2019-03-11T12:32:06.203Z,36.45
2019-03-11T12:33:06.156Z,36.54
2019-03-11T12:34:06.107Z,36.45
2019-03-11T12:35:06.060Z,36.45
2019-03-11T12:36:06.063Z,36.54
2019-03-11T12:37:05.964Z,36.45
2019-03-11T12:38:05.917Z,36.25
2019-03-11T12:39:05.870Z,36.35
2019-03-11T12:40:05.826Z,36.16
2019-03-11T12:41:05.827Z,36.25
2019-03-11T12:42:05.753Z,36.25
2019-03-11T12:43:05.679Z,36.54
2019-03-11T12:44:05.632Z,36.35
2019-03-11T12:45:05.586Z,36.45
2019-03-11T12:46:05.538Z,36.16
2019-03-11T12:47:05.490Z,36.25
2019-03-11T12:48:05.442Z,36.16
2019-03-11T12:49:05.395Z,36.25
2019-03-11T12:50:05.352Z,36.16
2019-03-11T12:51:05.298Z,36.16
2019-03-11T12:52:05.251Z,36.25